sensor_id;sensor_type;location;lat;lon;timestamp;P1;durP1;ratioP1;P2;durP2;ratioP2
61938;SDS011;47897;50.322;18.892;2023-02-25T00:01:18;76.80;;;34.90;;
61938;SDS011;47897;50.322;18.892;2023-02-25T00:03:45;77.40;;;33.00;;
61938;SDS011;47897;50.322;18.892;2023-02-25T00:06:12;73.80;;;34.40;;
61938;SDS011;47897;50.322;18.892;2023-02-25T00:08:43;74.20;;;33.10;;
61938;SDS011;47897;50.322;18.892;2023-02-25T00:11:11;64.70;;;29.80;;
61938;SDS011;47897;50.322;18.892;2023-02-25T00:13:39;67.70;;;31.20;;
61938;SDS011;47897;50.322;18.892;2023-02-25T00:16:06;66.60;;;27.90;;
61938;SDS011;47897;50.322;18.892;2023-02-25T00:18:33;71.90;;;31.60;;
61938;SDS011;47897;50.322;18.892;2023-02-25T00:21:02;63.70;;;28.50;;
61938;SDS011;47897;50.322;18.892;2023-02-25T00:23:29;65.20;;;30.30;;
61938;SDS011;47897;50.322;18.892;2023-02-25T00:25:59;73.00;;;33.30;;
61938;SDS011;47897;50.322;18.892;2023-02-25T00:28:26;66.00;;;30.50;;
61938;SDS011;47897;50.322;18.892;2023-02-25T00:30:53;69.30;;;30.80;;
61938;SDS011;47897;50.322;18.892;2023-02-25T00:33:20;77.40;;;32.30;;
61938;SDS011;47897;50.322;18.892;2023-02-25T00:35:47;66.50;;;29.90;;
61938;SDS011;47897;50.322;18.892;2023-02-25T00:38:16;70.50;;;29.20;;
61938;SDS011;47897;50.322;18.892;2023-02-25T00:40:43;68.90;;;31.00;;
61938;SDS011;47897;50.322;18.892;2023-02-25T00:43:09;66.00;;;28.60;;
61938;SDS011;47897;50.322;18.892;2023-02-25T00:45:37;63.10;;;28.00;;
61938;SDS011;47897;50.322;18.892;2023-02-25T00:48:05;53.20;;;24.60;;
61938;SDS011;47897;50.322;18.892;2023-02-25T00:50:31;54.00;;;24.50;;
61938;SDS011;47897;50.322;18.892;2023-02-25T00:52:58;29.20;;;15.00;;
61938;SDS011;47897;50.322;18.892;2023-02-25T00:55:25;43.10;;;20.60;;
61938;SDS011;47897;50.322;18.892;2023-02-25T00:58:01;40.60;;;20.80;;
61938;SDS011;47897;50.322;18.892;2023-02-25T01:00:28;44.90;;;21.70;;
61938;SDS011;47897;50.322;18.892;2023-02-25T01:02:55;48.50;;;22.70;;
61938;SDS011;47897;50.322;18.892;2023-02-25T01:05:23;44.80;;;22.30;;
61938;SDS011;47897;50.322;18.892;2023-02-25T01:07:50;45.00;;;24.20;;
61938;SDS011;47897;50.322;18.892;2023-02-25T01:10:16;42.80;;;20.20;;
61938;SDS011;47897;50.322;18.892;2023-02-25T01:12:43;33.50;;;17.20;;
61938;SDS011;47897;50.322;18.892;2023-02-25T01:15:10;42.30;;;25.10;;
61938;SDS011;47897;50.322;18.892;2023-02-25T01:17:37;45.20;;;24.40;;
61938;SDS011;47897;50.322;18.892;2023-02-25T01:20:04;42.00;;;23.50;;
61938;SDS011;47897;50.322;18.892;2023-02-25T01:22:38;39.80;;;20.10;;
61938;SDS011;47897;50.322;18.892;2023-02-25T01:25:09;47.90;;;23.80;;
61938;SDS011;47897;50.322;18.892;2023-02-25T01:27:37;41.60;;;22.40;;
61938;SDS011;47897;50.322;18.892;2023-02-25T01:30:04;45.20;;;22.70;;
61938;SDS011;47897;50.322;18.892;2023-02-25T01:32:31;33.10;;;16.70;;
61938;SDS011;47897;50.322;18.892;2023-02-25T01:34:58;48.90;;;24.40;;
61938;SDS011;47897;50.322;18.892;2023-02-25T01:37:24;52.10;;;23.70;;
61938;SDS011;47897;50.322;18.892;2023-02-25T01:39:51;51.20;;;26.00;;
61938;SDS011;47897;50.322;18.892;2023-02-25T01:42:18;51.40;;;26.50;;
61938;SDS011;47897;50.322;18.892;2023-02-25T01:47:31;48.70;;;24.00;;
61938;SDS011;47897;50.322;18.892;2023-02-25T01:50:01;45.10;;;22.90;;
61938;SDS011;47897;50.322;18.892;2023-02-25T01:52:27;44.60;;;23.90;;
61938;SDS011;47897;50.322;18.892;2023-02-25T01:54:55;50.00;;;25.50;;
61938;SDS011;47897;50.322;18.892;2023-02-25T01:57:23;49.30;;;26.30;;
61938;SDS011;47897;50.322;18.892;2023-02-25T01:59:50;51.00;;;27.60;;
61938;SDS011;47897;50.322;18.892;2023-02-25T02:02:19;55.00;;;29.00;;
61938;SDS011;47897;50.322;18.892;2023-02-25T02:04:50;54.10;;;29.10;;
61938;SDS011;47897;50.322;18.892;2023-02-25T02:07:18;49.30;;;27.20;;
61938;SDS011;47897;50.322;18.892;2023-02-25T02:09:45;50.80;;;25.70;;
61938;SDS011;47897;50.322;18.892;2023-02-25T02:12:22;39.80;;;21.50;;
61938;SDS011;47897;50.322;18.892;2023-02-25T02:14:49;42.20;;;21.00;;
61938;SDS011;47897;50.322;18.892;2023-02-25T02:18:00;37.60;;;18.50;;
61938;SDS011;47897;50.322;18.892;2023-02-25T02:33:57;28.40;;;13.00;;
61938;SDS011;47897;50.322;18.892;2023-02-25T02:43:57;39.10;;;19.50;;
61938;SDS011;47897;50.322;18.892;2023-02-25T02:46:31;29.60;;;14.10;;
61938;SDS011;47897;50.322;18.892;2023-02-25T02:51:30;27.60;;;14.00;;
61938;SDS011;47897;50.322;18.892;2023-02-25T02:53:59;25.80;;;11.70;;
61938;SDS011;47897;50.322;18.892;2023-02-25T02:56:27;17.20;;;9.70;;
61938;SDS011;47897;50.322;18.892;2023-02-25T02:58:57;25.80;;;11.60;;
61938;SDS011;47897;50.322;18.892;2023-02-25T03:01:28;32.90;;;14.20;;
61938;SDS011;47897;50.322;18.892;2023-02-25T03:03:59;22.90;;;11.10;;
61938;SDS011;47897;50.322;18.892;2023-02-25T03:06:39;25.80;;;11.50;;
61938;SDS011;47897;50.322;18.892;2023-02-25T03:09:11;23.20;;;11.70;;
61938;SDS011;47897;50.322;18.892;2023-02-25T03:11:40;22.00;;;10.90;;
61938;SDS011;47897;50.322;18.892;2023-02-25T03:14:06;31.90;;;16.60;;
61938;SDS011;47897;50.322;18.892;2023-02-25T03:16:36;25.30;;;11.90;;
61938;SDS011;47897;50.322;18.892;2023-02-25T03:21:51;15.30;;;8.30;;
61938;SDS011;47897;50.322;18.892;2023-02-25T03:26:49;19.80;;;9.90;;
61938;SDS011;47897;50.322;18.892;2023-02-25T03:29:20;14.50;;;7.00;;
61938;SDS011;47897;50.322;18.892;2023-02-25T03:31:49;14.90;;;7.10;;
61938;SDS011;47897;50.322;18.892;2023-02-25T03:34:19;14.70;;;7.60;;
61938;SDS011;47897;50.322;18.892;2023-02-25T03:36:53;13.80;;;6.00;;
61938;SDS011;47897;50.322;18.892;2023-02-25T03:39:27;15.20;;;7.80;;
61938;SDS011;47897;50.322;18.892;2023-02-25T03:41:55;15.80;;;7.40;;
61938;SDS011;47897;50.322;18.892;2023-02-25T03:44:24;15.70;;;7.30;;
61938;SDS011;47897;50.322;18.892;2023-02-25T03:46:52;17.30;;;8.30;;
61938;SDS011;47897;50.322;18.892;2023-02-25T03:49:22;18.70;;;7.90;;
61938;SDS011;47897;50.322;18.892;2023-02-25T03:51:50;14.60;;;8.50;;
61938;SDS011;47897;50.322;18.892;2023-02-25T03:54:18;17.70;;;9.00;;
61938;SDS011;47897;50.322;18.892;2023-02-25T03:56:46;11.30;;;6.50;;
61938;SDS011;47897;50.322;18.892;2023-02-25T03:59:13;16.40;;;8.40;;
61938;SDS011;47897;50.322;18.892;2023-02-25T04:01:40;11.80;;;6.40;;
61938;SDS011;47897;50.322;18.892;2023-02-25T04:04:08;14.10;;;6.50;;
61938;SDS011;47897;50.322;18.892;2023-02-25T04:06:34;15.30;;;8.60;;
61938;SDS011;47897;50.322;18.892;2023-02-25T04:09:01;21.40;;;10.70;;
61938;SDS011;47897;50.322;18.892;2023-02-25T04:11:29;14.40;;;9.60;;
61938;SDS011;47897;50.322;18.892;2023-02-25T04:13:56;12.70;;;7.10;;
61938;SDS011;47897;50.322;18.892;2023-02-25T04:16:22;11.70;;;6.00;;
61938;SDS011;47897;50.322;18.892;2023-02-25T04:18:49;15.20;;;8.20;;
61938;SDS011;47897;50.322;18.892;2023-02-25T04:23:51;20.80;;;9.80;;
61938;SDS011;47897;50.322;18.892;2023-02-25T04:26:18;19.80;;;9.80;;
61938;SDS011;47897;50.322;18.892;2023-02-25T04:28:45;23.30;;;10.50;;
61938;SDS011;47897;50.322;18.892;2023-02-25T04:31:12;21.70;;;11.00;;
61938;SDS011;47897;50.322;18.892;2023-02-25T04:33:38;22.30;;;11.40;;
61938;SDS011;47897;50.322;18.892;2023-02-25T04:36:05;22.10;;;11.60;;
61938;SDS011;47897;50.322;18.892;2023-02-25T04:38:46;18.80;;;9.40;;
61938;SDS011;47897;50.322;18.892;2023-02-25T04:41:13;22.30;;;11.60;;
61938;SDS011;47897;50.322;18.892;2023-02-25T04:43:40;26.60;;;13.10;;
61938;SDS011;47897;50.322;18.892;2023-02-25T04:46:06;29.40;;;14.10;;
61938;SDS011;47897;50.322;18.892;2023-02-25T04:48:33;32.00;;;15.60;;
61938;SDS011;47897;50.322;18.892;2023-02-25T04:51:01;34.50;;;15.60;;
61938;SDS011;47897;50.322;18.892;2023-02-25T04:53:28;30.80;;;16.10;;
61938;SDS011;47897;50.322;18.892;2023-02-25T04:55:54;31.00;;;13.70;;
61938;SDS011;47897;50.322;18.892;2023-02-25T04:58:21;28.50;;;14.30;;
61938;SDS011;47897;50.322;18.892;2023-02-25T05:00:47;30.30;;;13.50;;
61938;SDS011;47897;50.322;18.892;2023-02-25T05:03:14;27.10;;;13.30;;
61938;SDS011;47897;50.322;18.892;2023-02-25T05:05:41;30.40;;;14.50;;
61938;SDS011;47897;50.322;18.892;2023-02-25T05:08:08;35.60;;;16.80;;
61938;SDS011;47897;50.322;18.892;2023-02-25T05:10:34;29.30;;;15.30;;
61938;SDS011;47897;50.322;18.892;2023-02-25T05:13:01;34.30;;;15.60;;
61938;SDS011;47897;50.322;18.892;2023-02-25T05:15:27;34.90;;;16.30;;
61938;SDS011;47897;50.322;18.892;2023-02-25T05:17:54;26.00;;;12.80;;
61938;SDS011;47897;50.322;18.892;2023-02-25T05:20:21;29.20;;;14.40;;
61938;SDS011;47897;50.322;18.892;2023-02-25T05:22:48;23.70;;;12.10;;
61938;SDS011;47897;50.322;18.892;2023-02-25T05:25:15;23.00;;;11.50;;
61938;SDS011;47897;50.322;18.892;2023-02-25T05:27:41;24.20;;;12.30;;
61938;SDS011;47897;50.322;18.892;2023-02-25T05:30:08;23.40;;;11.70;;
61938;SDS011;47897;50.322;18.892;2023-02-25T05:32:35;24.10;;;11.50;;
61938;SDS011;47897;50.322;18.892;2023-02-25T05:35:02;16.70;;;8.60;;
61938;SDS011;47897;50.322;18.892;2023-02-25T05:37:30;22.90;;;12.40;;
61938;SDS011;47897;50.322;18.892;2023-02-25T05:39:56;16.00;;;7.80;;
61938;SDS011;47897;50.322;18.892;2023-02-25T05:42:24;24.20;;;12.30;;
61938;SDS011;47897;50.322;18.892;2023-02-25T05:44:50;25.10;;;12.50;;
61938;SDS011;47897;50.322;18.892;2023-02-25T05:47:17;28.70;;;15.00;;
61938;SDS011;47897;50.322;18.892;2023-02-25T05:49:44;29.40;;;14.90;;
61938;SDS011;47897;50.322;18.892;2023-02-25T05:52:12;27.00;;;13.90;;
61938;SDS011;47897;50.322;18.892;2023-02-25T05:54:39;28.20;;;15.60;;
61938;SDS011;47897;50.322;18.892;2023-02-25T05:57:05;27.50;;;14.90;;
61938;SDS011;47897;50.322;18.892;2023-02-25T05:59:32;23.80;;;12.00;;
61938;SDS011;47897;50.322;18.892;2023-02-25T06:01:59;25.00;;;12.80;;
61938;SDS011;47897;50.322;18.892;2023-02-25T06:04:25;26.20;;;13.40;;
61938;SDS011;47897;50.322;18.892;2023-02-25T06:06:52;30.10;;;16.30;;
61938;SDS011;47897;50.322;18.892;2023-02-25T06:09:19;35.00;;;16.70;;
61938;SDS011;47897;50.322;18.892;2023-02-25T06:11:46;53.20;;;21.80;;
61938;SDS011;47897;50.322;18.892;2023-02-25T06:14:13;47.00;;;20.60;;
61938;SDS011;47897;50.322;18.892;2023-02-25T06:16:40;25.20;;;12.60;;
61938;SDS011;47897;50.322;18.892;2023-02-25T06:19:07;26.80;;;13.50;;
61938;SDS011;47897;50.322;18.892;2023-02-25T06:21:36;37.00;;;18.60;;
61938;SDS011;47897;50.322;18.892;2023-02-25T06:24:03;35.50;;;17.30;;
61938;SDS011;47897;50.322;18.892;2023-02-25T06:26:30;38.60;;;17.50;;
61938;SDS011;47897;50.322;18.892;2023-02-25T06:28:56;29.70;;;15.40;;
61938;SDS011;47897;50.322;18.892;2023-02-25T06:31:23;26.00;;;13.20;;
61938;SDS011;47897;50.322;18.892;2023-02-25T06:33:50;32.70;;;15.30;;
61938;SDS011;47897;50.322;18.892;2023-02-25T06:36:18;30.30;;;15.20;;
61938;SDS011;47897;50.322;18.892;2023-02-25T06:38:46;30.30;;;14.00;;
61938;SDS011;47897;50.322;18.892;2023-02-25T06:41:14;28.00;;;13.20;;
61938;SDS011;47897;50.322;18.892;2023-02-25T06:43:42;26.30;;;13.20;;
61938;SDS011;47897;50.322;18.892;2023-02-25T06:46:10;23.80;;;13.60;;
61938;SDS011;47897;50.322;18.892;2023-02-25T06:48:37;30.40;;;14.00;;
61938;SDS011;47897;50.322;18.892;2023-02-25T06:51:04;27.80;;;14.60;;
61938;SDS011;47897;50.322;18.892;2023-02-25T06:53:35;28.10;;;15.00;;
61938;SDS011;47897;50.322;18.892;2023-02-25T06:56:01;36.20;;;17.90;;
61938;SDS011;47897;50.322;18.892;2023-02-25T06:58:28;33.30;;;18.10;;
61938;SDS011;47897;50.322;18.892;2023-02-25T07:00:55;29.50;;;16.10;;
61938;SDS011;47897;50.322;18.892;2023-02-25T07:03:21;29.70;;;14.90;;
61938;SDS011;47897;50.322;18.892;2023-02-25T07:05:48;28.10;;;14.20;;
61938;SDS011;47897;50.322;18.892;2023-02-25T07:08:15;37.30;;;18.00;;
61938;SDS011;47897;50.322;18.892;2023-02-25T07:10:41;35.40;;;15.60;;
61938;SDS011;47897;50.322;18.892;2023-02-25T07:13:08;31.50;;;14.40;;
61938;SDS011;47897;50.322;18.892;2023-02-25T07:15:36;21.30;;;8.80;;
61938;SDS011;47897;50.322;18.892;2023-02-25T07:18:02;21.80;;;10.20;;
61938;SDS011;47897;50.322;18.892;2023-02-25T07:20:29;25.40;;;11.20;;
61938;SDS011;47897;50.322;18.892;2023-02-25T07:22:56;21.60;;;10.10;;
61938;SDS011;47897;50.322;18.892;2023-02-25T07:25:23;21.50;;;11.10;;
61938;SDS011;47897;50.322;18.892;2023-02-25T07:27:49;15.70;;;8.40;;
61938;SDS011;47897;50.322;18.892;2023-02-25T07:30:16;12.10;;;6.20;;
61938;SDS011;47897;50.322;18.892;2023-02-25T07:32:43;15.90;;;8.10;;
61938;SDS011;47897;50.322;18.892;2023-02-25T07:35:10;10.80;;;4.60;;
61938;SDS011;47897;50.322;18.892;2023-02-25T07:37:37;16.50;;;7.40;;
61938;SDS011;47897;50.322;18.892;2023-02-25T07:40:07;14.50;;;7.20;;
61938;SDS011;47897;50.322;18.892;2023-02-25T07:42:39;11.70;;;4.50;;
61938;SDS011;47897;50.322;18.892;2023-02-25T07:45:06;14.10;;;6.20;;
61938;SDS011;47897;50.322;18.892;2023-02-25T07:47:33;12.40;;;5.70;;
61938;SDS011;47897;50.322;18.892;2023-02-25T07:50:00;13.40;;;6.20;;
61938;SDS011;47897;50.322;18.892;2023-02-25T07:52:27;13.90;;;6.70;;
61938;SDS011;47897;50.322;18.892;2023-02-25T07:54:53;13.60;;;7.20;;
61938;SDS011;47897;50.322;18.892;2023-02-25T07:57:20;14.60;;;7.70;;
61938;SDS011;47897;50.322;18.892;2023-02-25T07:59:47;18.10;;;8.60;;
61938;SDS011;47897;50.322;18.892;2023-02-25T08:02:13;8.90;;;4.60;;
61938;SDS011;47897;50.322;18.892;2023-02-25T08:04:40;18.80;;;7.90;;
61938;SDS011;47897;50.322;18.892;2023-02-25T08:07:07;11.70;;;4.90;;
61938;SDS011;47897;50.322;18.892;2023-02-25T08:09:33;14.60;;;7.80;;
61938;SDS011;47897;50.322;18.892;2023-02-25T08:12:00;16.10;;;7.10;;
61938;SDS011;47897;50.322;18.892;2023-02-25T08:14:27;10.50;;;5.00;;
61938;SDS011;47897;50.322;18.892;2023-02-25T08:16:56;6.70;;;3.60;;
61938;SDS011;47897;50.322;18.892;2023-02-25T08:19:23;22.60;;;9.30;;
61938;SDS011;47897;50.322;18.892;2023-02-25T08:21:50;10.30;;;5.50;;
61938;SDS011;47897;50.322;18.892;2023-02-25T08:24:16;23.90;;;10.40;;
61938;SDS011;47897;50.322;18.892;2023-02-25T08:26:46;21.30;;;9.50;;
61938;SDS011;47897;50.322;18.892;2023-02-25T08:29:13;18.10;;;8.10;;
61938;SDS011;47897;50.322;18.892;2023-02-25T08:31:40;18.80;;;8.90;;
61938;SDS011;47897;50.322;18.892;2023-02-25T08:34:07;21.10;;;9.10;;
61938;SDS011;47897;50.322;18.892;2023-02-25T08:36:33;11.00;;;5.60;;
61938;SDS011;47897;50.322;18.892;2023-02-25T08:39:01;10.70;;;5.80;;
61938;SDS011;47897;50.322;18.892;2023-02-25T08:41:28;14.00;;;6.50;;
61938;SDS011;47897;50.322;18.892;2023-02-25T08:43:55;13.30;;;6.50;;
61938;SDS011;47897;50.322;18.892;2023-02-25T08:46:23;14.70;;;7.60;;
61938;SDS011;47897;50.322;18.892;2023-02-25T08:48:50;14.60;;;7.30;;
61938;SDS011;47897;50.322;18.892;2023-02-25T08:51:18;11.30;;;5.70;;
61938;SDS011;47897;50.322;18.892;2023-02-25T08:53:45;14.20;;;7.40;;
61938;SDS011;47897;50.322;18.892;2023-02-25T08:56:12;13.40;;;6.60;;
61938;SDS011;47897;50.322;18.892;2023-02-25T08:58:39;16.40;;;7.50;;
61938;SDS011;47897;50.322;18.892;2023-02-25T09:01:11;10.40;;;5.00;;
61938;SDS011;47897;50.322;18.892;2023-02-25T09:03:41;13.60;;;6.70;;
61938;SDS011;47897;50.322;18.892;2023-02-25T09:06:27;13.90;;;6.20;;
61938;SDS011;47897;50.322;18.892;2023-02-25T09:08:54;16.90;;;7.10;;
61938;SDS011;47897;50.322;18.892;2023-02-25T09:11:21;10.00;;;5.00;;
61938;SDS011;47897;50.322;18.892;2023-02-25T09:13:48;11.00;;;6.00;;
61938;SDS011;47897;50.322;18.892;2023-02-25T09:16:15;12.00;;;6.20;;
61938;SDS011;47897;50.322;18.892;2023-02-25T09:18:43;9.90;;;5.40;;
61938;SDS011;47897;50.322;18.892;2023-02-25T09:21:10;11.50;;;6.60;;
61938;SDS011;47897;50.322;18.892;2023-02-25T09:23:38;10.10;;;5.20;;
61938;SDS011;47897;50.322;18.892;2023-02-25T09:26:05;12.50;;;6.50;;
61938;SDS011;47897;50.322;18.892;2023-02-25T09:28:32;10.20;;;5.50;;
61938;SDS011;47897;50.322;18.892;2023-02-25T09:30:59;12.50;;;6.70;;
61938;SDS011;47897;50.322;18.892;2023-02-25T09:33:29;13.40;;;7.10;;
61938;SDS011;47897;50.322;18.892;2023-02-25T09:36:02;10.40;;;4.80;;
61938;SDS011;47897;50.322;18.892;2023-02-25T09:38:29;13.40;;;7.00;;
61938;SDS011;47897;50.322;18.892;2023-02-25T09:40:56;11.00;;;5.60;;
61938;SDS011;47897;50.322;18.892;2023-02-25T09:43:24;14.40;;;7.30;;
61938;SDS011;47897;50.322;18.892;2023-02-25T09:45:55;15.60;;;8.10;;
61938;SDS011;47897;50.322;18.892;2023-02-25T09:48:30;10.20;;;6.30;;
61938;SDS011;47897;50.322;18.892;2023-02-25T09:51:00;13.20;;;6.00;;
61938;SDS011;47897;50.322;18.892;2023-02-25T09:53:31;9.90;;;7.50;;
61938;SDS011;47897;50.322;18.892;2023-02-25T09:55:58;12.50;;;5.10;;
61938;SDS011;47897;50.322;18.892;2023-02-25T09:58:35;10.80;;;5.90;;
61938;SDS011;47897;50.322;18.892;2023-02-25T10:01:04;12.00;;;7.30;;
61938;SDS011;47897;50.322;18.892;2023-02-25T10:11:50;11.30;;;6.30;;
61938;SDS011;47897;50.322;18.892;2023-02-25T10:17:09;13.30;;;7.10;;
61938;SDS011;47897;50.322;18.892;2023-02-25T10:22:31;24.40;;;10.00;;
61938;SDS011;47897;50.322;18.892;2023-02-25T10:27:37;21.50;;;11.70;;
61938;SDS011;47897;50.322;18.892;2023-02-25T10:30:11;24.50;;;13.70;;
61938;SDS011;47897;50.322;18.892;2023-02-25T10:32:40;19.10;;;9.60;;
61938;SDS011;47897;50.322;18.892;2023-02-25T10:35:15;15.00;;;6.80;;
61938;SDS011;47897;50.322;18.892;2023-02-25T10:37:43;18.40;;;9.80;;
61938;SDS011;47897;50.322;18.892;2023-02-25T10:40:12;16.70;;;9.00;;
61938;SDS011;47897;50.322;18.892;2023-02-25T10:42:39;20.80;;;11.00;;
61938;SDS011;47897;50.322;18.892;2023-02-25T10:45:08;16.10;;;8.50;;
61938;SDS011;47897;50.322;18.892;2023-02-25T10:47:36;30.90;;;14.10;;
61938;SDS011;47897;50.322;18.892;2023-02-25T10:50:23;20.70;;;10.70;;
61938;SDS011;47897;50.322;18.892;2023-02-25T10:52:51;30.20;;;16.20;;
61938;SDS011;47897;50.322;18.892;2023-02-25T10:58:03;27.70;;;11.90;;
61938;SDS011;47897;50.322;18.892;2023-02-25T11:00:32;19.10;;;9.80;;
61938;SDS011;47897;50.322;18.892;2023-02-25T11:03:00;28.00;;;12.80;;
61938;SDS011;47897;50.322;18.892;2023-02-25T11:05:31;22.10;;;11.90;;
61938;SDS011;47897;50.322;18.892;2023-02-25T11:07:58;18.80;;;8.20;;
61938;SDS011;47897;50.322;18.892;2023-02-25T11:10:25;12.80;;;7.60;;
61938;SDS011;47897;50.322;18.892;2023-02-25T11:12:53;19.50;;;9.80;;
61938;SDS011;47897;50.322;18.892;2023-02-25T11:17:47;17.70;;;9.40;;
61938;SDS011;47897;50.322;18.892;2023-02-25T11:20:21;19.40;;;8.50;;
61938;SDS011;47897;50.322;18.892;2023-02-25T11:22:52;23.20;;;12.00;;
61938;SDS011;47897;50.322;18.892;2023-02-25T11:25:22;14.20;;;6.80;;
61938;SDS011;47897;50.322;18.892;2023-02-25T11:27:53;13.80;;;6.00;;
61938;SDS011;47897;50.322;18.892;2023-02-25T11:30:23;21.30;;;9.00;;
61938;SDS011;47897;50.322;18.892;2023-02-25T11:32:54;18.00;;;10.70;;
61938;SDS011;47897;50.322;18.892;2023-02-25T11:35:24;19.70;;;7.90;;
61938;SDS011;47897;50.322;18.892;2023-02-25T11:37:55;11.10;;;6.40;;
61938;SDS011;47897;50.322;18.892;2023-02-25T11:40:28;9.60;;;6.20;;
61938;SDS011;47897;50.322;18.892;2023-02-25T11:45:25;19.20;;;10.40;;
61938;SDS011;47897;50.322;18.892;2023-02-25T11:47:53;10.20;;;5.50;;
61938;SDS011;47897;50.322;18.892;2023-02-25T11:50:25;13.40;;;6.30;;
61938;SDS011;47897;50.322;18.892;2023-02-25T11:55:50;21.80;;;9.40;;
61938;SDS011;47897;50.322;18.892;2023-02-25T11:58:28;15.60;;;8.00;;
61938;SDS011;47897;50.322;18.892;2023-02-25T12:01:01;19.50;;;11.00;;
61938;SDS011;47897;50.322;18.892;2023-02-25T12:14:17;13.20;;;6.20;;
61938;SDS011;47897;50.322;18.892;2023-02-25T12:16:55;7.40;;;4.00;;
61938;SDS011;47897;50.322;18.892;2023-02-25T12:29:56;9.40;;;4.70;;
61938;SDS011;47897;50.322;18.892;2023-02-25T12:43:05;6.40;;;3.30;;
61938;SDS011;47897;50.322;18.892;2023-02-25T12:46:40;13.00;;;6.60;;
61938;SDS011;47897;50.322;18.892;2023-02-25T12:51:27;11.30;;;5.50;;
61938;SDS011;47897;50.322;18.892;2023-02-25T12:54:21;11.80;;;5.30;;
61938;SDS011;47897;50.322;18.892;2023-02-25T12:57:07;15.40;;;8.40;;
61938;SDS011;47897;50.322;18.892;2023-02-25T13:18:16;14.90;;;8.50;;
61938;SDS011;47897;50.322;18.892;2023-02-25T13:23:47;18.20;;;10.50;;
61938;SDS011;47897;50.322;18.892;2023-02-25T13:26:23;18.50;;;10.10;;
61938;SDS011;47897;50.322;18.892;2023-02-25T13:29:40;19.00;;;10.20;;
61938;SDS011;47897;50.322;18.892;2023-02-25T13:31:50;20.40;;;8.40;;
61938;SDS011;47897;50.322;18.892;2023-02-25T13:50:17;40.40;;;19.70;;
61938;SDS011;47897;50.322;18.892;2023-02-25T13:53:07;35.20;;;13.60;;
61938;SDS011;47897;50.322;18.892;2023-02-25T14:14:26;16.30;;;7.70;;
61938;SDS011;47897;50.322;18.892;2023-02-25T14:20:04;19.40;;;8.70;;
61938;SDS011;47897;50.322;18.892;2023-02-25T14:22:41;22.70;;;8.80;;
61938;SDS011;47897;50.322;18.892;2023-02-25T14:25:17;17.10;;;7.70;;
61938;SDS011;47897;50.322;18.892;2023-02-25T14:35:45;15.90;;;6.90;;
61938;SDS011;47897;50.322;18.892;2023-02-25T14:43:32;17.60;;;8.60;;
61938;SDS011;47897;50.322;18.892;2023-02-25T14:51:13;21.10;;;7.10;;
61938;SDS011;47897;50.322;18.892;2023-02-25T14:56:27;33.20;;;16.10;;
61938;SDS011;47897;50.322;18.892;2023-02-25T15:04:46;12.40;;;5.90;;
61938;SDS011;47897;50.322;18.892;2023-02-25T15:20:36;9.00;;;4.80;;
61938;SDS011;47897;50.322;18.892;2023-02-25T15:23:10;14.10;;;6.50;;
61938;SDS011;47897;50.322;18.892;2023-02-25T15:33:37;19.00;;;11.90;;
61938;SDS011;47897;50.322;18.892;2023-02-25T15:47:09;20.20;;;9.50;;
61938;SDS011;47897;50.322;18.892;2023-02-25T15:51:46;14.50;;;7.10;;
61938;SDS011;47897;50.322;18.892;2023-02-25T16:04:53;30.40;;;13.50;;
61938;SDS011;47897;50.322;18.892;2023-02-25T16:07:21;34.10;;;16.40;;
61938;SDS011;47897;50.322;18.892;2023-02-25T16:09:53;33.50;;;15.60;;
61938;SDS011;47897;50.322;18.892;2023-02-25T16:12:21;24.50;;;13.10;;
61938;SDS011;47897;50.322;18.892;2023-02-25T16:14:49;24.80;;;11.40;;
61938;SDS011;47897;50.322;18.892;2023-02-25T16:19:43;35.80;;;16.20;;
61938;SDS011;47897;50.322;18.892;2023-02-25T16:22:13;50.00;;;23.00;;
61938;SDS011;47897;50.322;18.892;2023-02-25T16:24:42;39.40;;;16.20;;
61938;SDS011;47897;50.322;18.892;2023-02-25T16:32:25;31.90;;;16.30;;
61938;SDS011;47897;50.322;18.892;2023-02-25T16:35:05;51.30;;;20.50;;
61938;SDS011;47897;50.322;18.892;2023-02-25T16:40:00;19.40;;;9.40;;
61938;SDS011;47897;50.322;18.892;2023-02-25T16:42:27;26.20;;;10.80;;
61938;SDS011;47897;50.322;18.892;2023-02-25T16:45:01;22.00;;;10.50;;
61938;SDS011;47897;50.322;18.892;2023-02-25T16:47:30;24.80;;;11.00;;
61938;SDS011;47897;50.322;18.892;2023-02-25T16:49:58;29.80;;;14.10;;
61938;SDS011;47897;50.322;18.892;2023-02-25T16:52:32;23.00;;;10.00;;
61938;SDS011;47897;50.322;18.892;2023-02-25T16:55:00;36.50;;;15.90;;
61938;SDS011;47897;50.322;18.892;2023-02-25T16:57:28;51.70;;;23.90;;
61938;SDS011;47897;50.322;18.892;2023-02-25T17:02:45;40.50;;;18.00;;
61938;SDS011;47897;50.322;18.892;2023-02-25T17:07:52;38.70;;;16.40;;
61938;SDS011;47897;50.322;18.892;2023-02-25T17:10:22;30.50;;;16.00;;
61938;SDS011;47897;50.322;18.892;2023-02-25T17:12:49;60.10;;;23.30;;
61938;SDS011;47897;50.322;18.892;2023-02-25T17:15:19;37.10;;;17.00;;
61938;SDS011;47897;50.322;18.892;2023-02-25T17:17:48;43.80;;;18.10;;
61938;SDS011;47897;50.322;18.892;2023-02-25T17:20:20;38.20;;;15.20;;
61938;SDS011;47897;50.322;18.892;2023-02-25T17:22:53;47.20;;;19.70;;
61938;SDS011;47897;50.322;18.892;2023-02-25T17:25:21;40.10;;;16.40;;
61938;SDS011;47897;50.322;18.892;2023-02-25T17:27:49;51.40;;;18.10;;
61938;SDS011;47897;50.322;18.892;2023-02-25T17:32:58;43.50;;;17.30;;
61938;SDS011;47897;50.322;18.892;2023-02-25T17:35:25;41.40;;;19.10;;
61938;SDS011;47897;50.322;18.892;2023-02-25T17:37:53;31.30;;;16.30;;
61938;SDS011;47897;50.322;18.892;2023-02-25T17:40:23;42.40;;;20.20;;
61938;SDS011;47897;50.322;18.892;2023-02-25T17:42:50;33.90;;;14.90;;
61938;SDS011;47897;50.322;18.892;2023-02-25T17:45:41;47.90;;;20.30;;
61938;SDS011;47897;50.322;18.892;2023-02-25T17:50:50;42.60;;;16.10;;
61938;SDS011;47897;50.322;18.892;2023-02-25T17:53:25;57.40;;;22.60;;
61938;SDS011;47897;50.322;18.892;2023-02-25T17:55:53;64.80;;;25.00;;
61938;SDS011;47897;50.322;18.892;2023-02-25T17:58:22;41.60;;;19.10;;
61938;SDS011;47897;50.322;18.892;2023-02-25T18:00:59;44.70;;;15.90;;
61938;SDS011;47897;50.322;18.892;2023-02-25T18:03:28;35.20;;;13.90;;
61938;SDS011;47897;50.322;18.892;2023-02-25T18:05:59;32.90;;;15.00;;
61938;SDS011;47897;50.322;18.892;2023-02-25T18:08:28;47.10;;;19.60;;
61938;SDS011;47897;50.322;18.892;2023-02-25T18:13:26;37.00;;;15.50;;
61938;SDS011;47897;50.322;18.892;2023-02-25T18:16:10;28.80;;;13.00;;
61938;SDS011;47897;50.322;18.892;2023-02-25T18:18:38;27.80;;;14.40;;
61938;SDS011;47897;50.322;18.892;2023-02-25T18:21:05;32.20;;;13.50;;
61938;SDS011;47897;50.322;18.892;2023-02-25T18:23:34;32.10;;;15.10;;
61938;SDS011;47897;50.322;18.892;2023-02-25T18:26:14;38.80;;;15.30;;
61938;SDS011;47897;50.322;18.892;2023-02-25T18:28:41;54.10;;;22.90;;
61938;SDS011;47897;50.322;18.892;2023-02-25T18:31:07;31.50;;;15.60;;
61938;SDS011;47897;50.322;18.892;2023-02-25T18:33:35;49.80;;;20.30;;
61938;SDS011;47897;50.322;18.892;2023-02-25T18:36:05;52.90;;;21.80;;